RJCC/CTS METAR and TAF weather

Enter ICAO airport designator
Station Type Date Time Source
RJCC METAR 2021/09/16 10:00 UTC NOAA

RJCC 161000Z 13008KT 9999 FEW020 SCT030 BKN/// 16/13 Q1020 RMK 1CU020 3CU030 A3013


Station Type Date Time Source
RJCC Decoded METAR 2021/09/16 10:00 UTC NOAA

Chitose Ab, Japan (RJCC) 42-48N 141-40E 30M
Sep 16, 2021 - 06:00 AM EDT / 2021.09.16 1000 UTC
Wind: from the SE (130 degrees) at 9 MPH (8 KT):0
Visibility: greater than 7 mile(s):0
Sky conditions: mostly cloudy
Temperature: 60 F (16 C)
Dew Point: 55 F (13 C)
Relative Humidity: 82%
Pressure (altimeter): 30.12 in. Hg (1020 hPa)
ob: RJCC 161000Z 13008KT 9999 FEW020 SCT030 BKN/// 16/13 Q1020 RMK 1CU020 3CU030 A3013
cycle: 10

Station Type Date Time Source
RJCC TAF 2021/09/16 06:30 UTC NOAA

TAF RJCC 160505Z 1606/1712 17012KT 9999 FEW020 SCT030

Example: see airport list